Time;durP1;ratioP1;P1;durP2;ratioP2;P2;SDS_P1;SDS_P2;PMS_P1;PMS_P2;Temp;Humidity;BMP_temperature;BMP_pressure;BME280_temperature;BME280_humidity;BME280_pressure;Samples;Min_cycle;Max_cycle;Signal;HPM_P1;HPM_P2
2021/07/26 00:01:55;;;;;;;5.05;4.10;;;20.00;99.90;;;;;;4895289;29;20937;-82
2021/07/26 00:04:21;;;;;;;4.25;3.85;;;20.00;99.90;;;;;;4856669;29;20411;-82
2021/07/26 00:06:48;;;;;;;4.43;4.03;;;20.10;99.90;;;;;;4879908;29;20401;-80
2021/07/26 00:09:14;;;;;;;6.00;5.32;;;20.10;99.90;;;;;;4878721;29;20492;-81
2021/07/26 00:11:40;;;;;;;4.30;4.00;;;20.00;99.90;;;;;;4876440;29;20423;-81
2021/07/26 00:14:06;;;;;;;5.97;5.20;;;20.10;99.90;;;;;;4889451;29;20442;-80
2021/07/26 00:16:32;;;;;;;4.82;4.43;;;20.10;99.90;;;;;;4866470;29;20445;-81
2021/07/26 00:18:58;;;;;;;5.97;5.38;;;20.10;99.90;;;;;;4886675;29;20478;-81
2021/07/26 00:21:27;;;;;;;7.85;5.80;;;20.20;99.90;;;;;;4880286;29;20411;-81
2021/07/26 00:23:56;;;;;;;5.13;4.73;;;20.30;99.90;;;;;;4878707;29;20405;-81
2021/07/26 00:26:24;;;;;;;6.40;5.75;;;20.20;99.90;;;;;;4880718;29;20415;-81
2021/07/26 00:28:53;;;;;;;6.18;5.57;;;20.30;99.90;;;;;;4876849;29;20403;-80
2021/07/26 00:31:20;;;;;;;5.63;5.07;;;20.20;99.90;;;;;;4898131;29;20401;-81
2021/07/26 00:34:11;;;;;;;5.13;4.72;;;20.20;99.90;;;;;;4866067;29;20492;-81
2021/07/26 00:36:44;;;;;;;5.00;4.50;;;20.20;99.90;;;;;;4912842;29;20406;-82
2021/07/26 00:39:11;;;;;;;5.35;4.85;;;20.20;99.90;;;;;;4867898;29;20495;-81
2021/07/26 00:41:37;;;;;;;5.75;5.15;;;20.40;99.90;;;;;;4902656;29;20415;-82
2021/07/26 00:44:04;;;;;;;6.38;5.50;;;20.30;99.90;;;;;;4895793;29;20399;-81
2021/07/26 00:46:30;;;;;;;5.97;5.38;;;20.40;99.90;;;;;;4896303;29;20404;-81
2021/07/26 00:48:58;;;;;;;6.18;5.57;;;20.20;99.90;;;;;;4898353;29;20414;-81
2021/07/26 00:51:24;;;;;;;6.57;5.95;;;20.40;99.90;;;;;;4885251;29;20399;-81
2021/07/26 00:53:50;;;;;;;7.43;5.82;;;20.30;99.90;;;;;;4886298;29;20409;-82
2021/07/26 00:56:17;;;;;;;6.50;5.82;;;20.30;99.90;;;;;;4891210;29;20403;-81
2021/07/26 00:58:43;;;;;;;6.22;5.63;;;20.20;99.90;;;;;;4896553;29;20498;-81
2021/07/26 01:01:15;;;;;;;6.10;5.60;;;20.20;99.90;;;;;;4875605;29;20410;-81
2021/07/26 01:03:43;;;;;;;5.97;5.38;;;20.30;99.90;;;;;;4906070;29;20431;-81
2021/07/26 01:06:10;;;;;;;6.07;5.57;;;20.20;99.90;;;;;;4902820;29;20401;-82
2021/07/26 01:08:36;;;;;;;9.70;6.55;;;20.30;99.90;;;;;;4896810;29;20444;-81
2021/07/26 01:11:05;;;;;;;6.28;5.68;;;20.10;99.90;;;;;;4894418;29;20434;-82
2021/07/26 01:13:32;;;;;;;5.95;5.45;;;20.10;99.90;;;;;;4890018;29;20417;-81
2021/07/26 01:16:01;;;;;;;5.23;4.73;;;20.10;99.90;;;;;;4888875;29;20417;-81
2021/07/26 01:18:34;;;;;;;7.85;6.60;;;20.10;99.90;;;;;;4873116;29;20406;-81
2021/07/26 01:21:01;;;;;;;7.15;6.55;;;20.10;99.90;;;;;;4883780;29;20494;-81
2021/07/26 01:23:29;;;;;;;7.13;6.43;;;20.10;99.90;;;;;;4877604;29;20421;-81
2021/07/26 01:25:55;;;;;;;6.15;5.55;;;19.90;99.90;;;;;;4869361;29;20920;-81
2021/07/26 01:28:22;;;;;;;7.13;6.00;;;19.90;99.90;;;;;;4877222;29;20460;-81
2021/07/26 01:30:48;;;;;;;6.63;6.03;;;20.00;99.90;;;;;;4876778;29;20474;-82
2021/07/26 01:33:15;;;;;;;5.93;5.32;;;19.90;99.90;;;;;;4893645;29;20397;-81
2021/07/26 01:35:41;;;;;;;7.22;6.53;;;20.00;99.90;;;;;;4864929;29;20440;-81
2021/07/26 01:38:07;;;;;;;5.35;4.95;;;20.00;99.90;;;;;;4888050;29;20415;-81
2021/07/26 01:40:35;;;;;;;6.43;5.93;;;20.00;99.90;;;;;;4892560;29;20414;-82
2021/07/26 01:43:04;;;;;;;6.10;5.57;;;20.00;99.90;;;;;;4861074;29;20421;-82
2021/07/26 01:45:31;;;;;;;5.18;4.78;;;20.00;99.90;;;;;;4895564;29;20413;-80
2021/07/26 01:48:30;;;;;;;5.50;5.07;;;20.00;99.90;;;;;;4882883;29;20900;-81
2021/07/26 01:51:04;;;;;;;5.67;5.17;;;19.90;99.90;;;;;;4894284;29;20410;-81
2021/07/26 01:53:30;;;;;;;6.20;5.70;;;20.10;99.90;;;;;;4878014;29;20794;-81
2021/07/26 01:55:59;;;;;;;6.20;5.60;;;20.10;99.90;;;;;;4867279;29;20466;-81
2021/07/26 01:58:25;;;;;;;5.70;5.20;;;20.10;99.90;;;;;;4881199;29;20417;-81
2021/07/26 02:00:51;;;;;;;6.90;6.30;;;20.00;99.90;;;;;;4899109;29;20874;-81
2021/07/26 02:03:20;;;;;;;6.57;6.07;;;20.10;99.90;;;;;;4882969;29;20419;-81
2021/07/26 02:05:46;;;;;;;7.00;6.30;;;19.90;99.90;;;;;;4880137;29;20412;-80
2021/07/26 02:08:12;;;;;;;7.15;6.45;;;20.00;99.90;;;;;;4871024;29;20425;-81
2021/07/26 02:10:38;;;;;;;8.00;7.20;;;20.00;99.90;;;;;;4893138;29;20566;-82
2021/07/26 02:13:04;;;;;;;6.13;5.53;;;19.90;99.90;;;;;;4895695;29;20754;-81
2021/07/26 02:15:30;;;;;;;5.55;5.05;;;19.80;99.90;;;;;;4884855;29;20488;-82
2021/07/26 02:17:56;;;;;;;5.68;5.18;;;19.90;99.90;;;;;;4886735;29;20426;-81
2021/07/26 02:20:22;;;;;;;8.05;7.25;;;19.90;99.90;;;;;;4890137;29;20401;-81
2021/07/26 02:22:48;;;;;;;6.60;6.00;;;19.90;99.90;;;;;;4878684;29;20474;-80
2021/07/26 02:25:16;;;;;;;8.82;7.32;;;19.80;99.90;;;;;;4895573;29;20974;-81
2021/07/26 02:27:44;;;;;;;8.70;7.80;;;19.70;99.90;;;;;;4872133;29;20411;-83
2021/07/26 02:30:10;;;;;;;7.13;6.53;;;19.70;99.90;;;;;;4871429;29;20982;-81
2021/07/26 02:33:30;;;;;;;8.27;7.47;;;19.60;99.90;;;;;;4883200;29;20437;-82
2021/07/26 02:37:04;;;;;;;7.05;5.55;;;19.70;99.90;;;;;;4844557;29;20449;-80
2021/07/26 02:39:46;;;;;;;6.72;6.20;;;19.70;99.90;;;;;;4836983;29;20497;-81
2021/07/26 02:43:09;;;;;;;6.10;5.50;;;19.70;99.90;;;;;;4846870;29;20433;-81
2021/07/26 02:46:14;;;;;;;5.60;5.20;;;19.90;99.90;;;;;;4884772;29;20418;-81
2021/07/26 02:49:09;;;;;;;5.63;4.97;;;19.90;99.90;;;;;;4850447;29;20433;-80
2021/07/26 02:52:28;;;;;;;5.35;4.88;;;19.90;99.90;;;;;;4859316;29;20445;-80
2021/07/26 02:56:20;;;;;;;5.97;5.47;;;20.00;99.90;;;;;;4887336;29;20480;-81
2021/07/26 02:59:45;;;;;;;6.22;5.63;;;20.00;99.90;;;;;;4901952;29;20512;-80
2021/07/26 03:02:47;;;;;;;7.97;7.28;;;19.90;99.90;;;;;;4867476;29;20431;-81
2021/07/26 03:05:50;;;;;;;7.45;6.72;;;19.90;99.90;;;;;;4898784;29;20423;-80
2021/07/26 03:08:52;;;;;;;8.32;7.47;;;19.80;99.90;;;;;;4880142;29;20421;-80
2021/07/26 03:12:00;;;;;;;7.63;6.82;;;19.80;99.90;;;;;;4871401;29;20423;-80
2021/07/26 03:19:42;;;;;;;7.57;6.77;;;19.70;99.90;;;;;;4832626;29;20425;-81
2021/07/26 03:26:42;;;;;;;6.57;5.97;;;19.60;99.90;;;;;;4852734;29;20517;-83
2021/07/26 03:30:06;;;;;;;9.23;8.40;;;19.50;99.90;;;;;;4869856;29;20861;-83
2021/07/26 03:33:38;;;;;;;6.45;5.78;;;19.50;99.90;;;;;;4844065;29;20456;-81
2021/07/26 03:38:01;;;;;;;9.50;7.30;;;19.50;99.90;;;;;;4853583;29;20428;-81
2021/07/26 03:40:52;;;;;;;6.38;5.78;;;19.60;99.90;;;;;;4806232;29;20454;-81
2021/07/26 03:52:13;;;;;;;8.25;7.40;;;19.50;99.90;;;;;;4874843;29;20492;-83
2021/07/26 04:04:54;;;;;;;6.03;5.43;;;19.60;99.90;;;;;;5007870;23;20443;-80
2021/07/26 04:07:59;;;;;;;7.30;6.60;;;19.50;99.90;;;;;;4925968;29;20481;-80
2021/07/26 04:12:09;;;;;;;5.67;5.20;;;19.60;99.90;;;;;;4904159;29;20413;-81
2021/07/26 04:15:45;;;;;;;8.38;7.60;;;19.70;99.90;;;;;;4818423;29;20492;-81
2021/07/26 04:19:14;;;;;;;6.05;5.55;;;19.60;99.90;;;;;;4854283;29;20457;-80
2021/07/26 05:18:20;;;;;;;8.53;7.83;;;20.30;99.90;;;;;;5384666;23;20447;-83
2021/07/26 05:40:34;;;;;;;9.40;8.52;;;20.90;99.90;;;;;;5964623;23;20368;-81
2021/07/26 05:43:00;;;;;;;8.43;7.63;;;21.10;99.90;;;;;;4898369;29;20418;-81
2021/07/26 05:49:06;;;;;;;9.20;8.40;;;21.20;99.90;;;;;;5133342;23;20417;-81
2021/07/26 05:51:34;;;;;;;7.72;6.97;;;21.20;99.90;;;;;;4845843;29;20441;-82
2021/07/26 06:22:23;;;;;;;7.03;6.43;;;22.70;99.90;;;;;;5500327;23;20443;-83
2021/07/26 06:34:13;;;;;;;8.48;7.68;;;23.40;99.90;;;;;;5354551;23;20414;-82
2021/07/26 06:37:42;;;;;;;8.20;7.40;;;23.50;99.90;;;;;;4828724;29;20447;-83
2021/07/26 06:41:43;;;;;;;10.25;8.18;;;23.70;99.90;;;;;;4804634;29;20419;-82
2021/07/26 06:45:25;;;;;;;9.05;8.15;;;24.10;99.90;;;;;;4802123;29;20429;-83
2021/07/26 06:49:18;;;;;;;8.53;7.80;;;24.10;99.90;;;;;;4844550;29;20419;-83
2021/07/26 06:58:38;;;;;;;9.35;8.13;;;24.20;99.90;;;;;;4880865;29;20836;-82
2021/07/26 07:01:14;;;;;;;9.00;8.17;;;24.40;99.90;;;;;;4861705;29;20420;-81
2021/07/26 07:17:00;;;;;;;9.18;8.30;;;24.70;99.90;;;;;;4993221;23;20501;-81
2021/07/26 07:19:37;;;;;;;8.48;7.60;;;24.70;99.90;;;;;;4797465;29;20414;-83
2021/07/26 07:22:24;;;;;;;8.55;7.10;;;24.80;99.90;;;;;;4802605;29;20434;-83
2021/07/26 07:25:25;;;;;;;8.75;7.85;;;25.00;99.90;;;;;;4798745;29;20447;-83
2021/07/26 07:28:44;;;;;;;8.40;7.45;;;25.10;99.90;;;;;;4814879;29;20487;-83
2021/07/26 07:31:40;;;;;;;8.65;7.85;;;25.30;99.90;;;;;;4746790;29;20457;-83
2021/07/26 07:35:14;;;;;;;7.55;6.95;;;25.10;99.90;;;;;;4760776;29;20423;-84
2021/07/26 07:38:44;;;;;;;8.25;7.20;;;25.40;99.90;;;;;;4808299;29;20435;-83
2021/07/26 07:41:38;;;;;;;7.28;6.60;;;25.60;99.90;;;;;;4821822;29;20430;-83
2021/07/26 07:44:54;;;;;;;8.32;7.25;;;25.80;99.90;;;;;;4800631;29;20975;-83
2021/07/26 07:48:41;;;;;;;6.72;6.07;;;26.00;99.90;;;;;;4732646;29;20444;-83
2021/07/26 07:51:59;;;;;;;6.70;6.10;;;26.10;99.90;;;;;;4769463;29;20476;-83
2021/07/26 07:55:10;;;;;;;6.70;6.20;;;26.60;99.90;;;;;;4754237;29;20500;-83
2021/07/26 07:59:00;;;;;;;8.50;7.43;;;26.70;99.90;;;;;;4735022;29;20429;-83
2021/07/26 08:02:36;;;;;;;8.00;7.20;;;26.70;99.90;;;;;;4811259;29;20408;-82
2021/07/26 08:06:06;;;;;;;8.48;7.20;;;26.80;99.90;;;;;;4791906;29;20430;-83
2021/07/26 08:09:32;;;;;;;7.28;6.57;;;26.70;99.90;;;;;;4810129;29;20449;-83
2021/07/26 12:15:53;;;;;;;3.45;3.15;;;36.70;92.80;;;;;;4884758;29;20504;-80
2021/07/26 12:19:49;;;;;;;4.00;3.50;;;36.70;92.00;;;;;;4828520;29;20413;-80
2021/07/26 12:23:09;;;;;;;4.22;3.83;;;36.60;91.60;;;;;;4822866;29;20435;-80
2021/07/26 16:44:38;;;;;;;4.38;2.70;;;27.60;99.90;;;;;;4139600;23;20413;-81
2021/07/26 17:05:56;;;;;;;2.35;2.15;;;26.10;99.90;;;;;;5364599;23;20949;-82
2021/07/26 17:36:48;;;;;;;2.72;2.25;;;24.60;99.90;;;;;;5500442;23;20916;-80
2021/07/26 17:39:17;;;;;;;1.80;1.70;;;24.50;99.90;;;;;;4820293;29;20411;-81
2021/07/26 18:35:18;;;;;;;2.15;2.03;;;23.20;99.90;;;;;;5649787;23;20422;-81
2021/07/26 18:37:49;;;;;;;1.88;1.77;;;23.10;99.90;;;;;;4848633;29;20423;-80
2021/07/26 18:40:26;;;;;;;2.30;1.83;;;23.10;99.90;;;;;;4858385;29;20418;-81
2021/07/26 18:42:52;;;;;;;2.40;2.20;;;23.10;99.90;;;;;;4826099;29;20418;-81
2021/07/26 18:45:18;;;;;;;3.17;2.67;;;23.00;99.90;;;;;;4815558;29;20467;-80
2021/07/26 18:47:47;;;;;;;2.25;2.05;;;23.00;99.90;;;;;;4822200;29;20414;-80
2021/07/26 18:50:44;;;;;;;2.28;1.92;;;22.90;99.90;;;;;;4889739;24;20409;-81
2021/07/26 18:53:22;;;;;;;1.70;1.60;;;22.90;99.90;;;;;;4881703;29;20404;-81
2021/07/26 18:55:50;;;;;;;2.00;1.90;;;22.90;99.90;;;;;;4865653;29;20462;-80
2021/07/26 18:58:20;;;;;;;2.03;1.92;;;22.80;99.90;;;;;;4862502;29;20913;-81
2021/07/26 19:00:49;;;;;;;2.35;2.00;;;22.50;99.90;;;;;;4845305;29;20406;-80
2021/07/26 19:03:15;;;;;;;2.90;2.10;;;22.70;99.90;;;;;;4860422;29;20426;-81
2021/07/26 19:05:40;;;;;;;2.17;1.97;;;22.70;99.90;;;;;;4843228;29;20420;-80
2021/07/26 19:08:06;;;;;;;2.35;2.15;;;22.70;99.90;;;;;;4825794;29;20533;-80
2021/07/26 19:10:32;;;;;;;2.28;2.10;;;22.60;99.90;;;;;;4837374;29;20447;-81
2021/07/26 19:12:58;;;;;;;2.40;2.20;;;22.60;99.90;;;;;;4824056;29;20439;-80
2021/07/26 19:15:23;;;;;;;2.50;2.30;;;22.60;99.90;;;;;;4843999;29;20421;-80
2021/07/26 19:17:49;;;;;;;2.53;2.13;;;22.60;99.90;;;;;;4828226;29;20423;-81
2021/07/26 19:20:16;;;;;;;2.13;1.92;;;22.50;99.90;;;;;;4827025;29;20411;-81
2021/07/26 19:22:42;;;;;;;2.40;2.13;;;22.60;99.90;;;;;;4827315;29;20435;-80
2021/07/26 19:25:09;;;;;;;2.10;1.93;;;22.60;99.90;;;;;;4806077;29;20420;-80
2021/07/26 19:27:35;;;;;;;2.67;2.40;;;22.50;99.90;;;;;;4868206;29;20406;-80
2021/07/26 19:30:05;;;;;;;2.43;2.23;;;22.60;99.90;;;;;;4851807;29;20556;-81
2021/07/26 19:32:31;;;;;;;2.15;1.98;;;22.50;99.90;;;;;;4831514;29;20406;-81
2021/07/26 19:35:10;;;;;;;2.42;2.22;;;22.50;99.90;;;;;;4862209;29;20438;-80
2021/07/26 19:37:37;;;;;;;2.15;2.05;;;22.40;99.90;;;;;;4844118;29;20443;-81
2021/07/26 19:40:03;;;;;;;1.95;1.85;;;22.40;99.90;;;;;;4839725;29;20486;-81
2021/07/26 19:42:29;;;;;;;2.00;1.90;;;22.50;99.90;;;;;;4847075;29;20479;-80
2021/07/26 19:44:59;;;;;;;2.70;2.50;;;22.50;99.90;;;;;;4842223;29;20434;-80
2021/07/26 19:47:38;;;;;;;3.15;2.60;;;22.20;99.90;;;;;;4870013;29;20402;-81
2021/07/26 19:50:28;;;;;;;3.83;2.33;;;22.20;99.90;;;;;;4845903;29;20410;-81
2021/07/26 19:52:59;;;;;;;2.47;2.28;;;22.10;99.90;;;;;;4835191;29;20419;-81
2021/07/26 19:55:25;;;;;;;2.65;2.25;;;22.20;99.90;;;;;;4810108;29;20418;-81
2021/07/26 19:57:51;;;;;;;2.22;2.10;;;22.10;99.90;;;;;;4841592;29;20445;-81
2021/07/26 20:00:17;;;;;;;2.07;1.87;;;22.10;99.90;;;;;;4829761;29;20419;-80
2021/07/26 20:02:43;;;;;;;2.35;2.13;;;22.20;99.90;;;;;;4825679;29;20963;-80
2021/07/26 20:05:11;;;;;;;2.15;2.03;;;22.30;99.90;;;;;;4854951;29;20446;-80
2021/07/26 20:07:38;;;;;;;2.20;1.83;;;22.30;99.90;;;;;;4860709;29;20425;-81
2021/07/26 20:10:04;;;;;;;2.45;2.25;;;22.20;99.90;;;;;;4812351;29;20523;-81
2021/07/26 20:12:30;;;;;;;3.05;2.67;;;22.20;99.90;;;;;;4820322;29;20423;-80
2021/07/26 20:14:56;;;;;;;2.78;2.55;;;22.20;99.90;;;;;;4817594;29;20407;-80
2021/07/26 20:17:32;;;;;;;2.65;2.42;;;22.20;99.90;;;;;;4828574;29;20410;-80
2021/07/26 20:19:59;;;;;;;4.30;2.33;;;22.00;99.90;;;;;;4839676;29;20412;-80
2021/07/26 20:22:25;;;;;;;2.17;2.08;;;22.00;99.90;;;;;;4839847;29;20412;-81
2021/07/26 20:24:55;;;;;;;2.55;2.35;;;21.90;99.90;;;;;;4849472;29;20983;-80
2021/07/26 20:27:21;;;;;;;2.28;2.17;;;21.90;99.90;;;;;;4828999;29;20760;-80
2021/07/26 20:29:47;;;;;;;2.50;2.30;;;21.90;99.90;;;;;;4855621;29;20498;-81
2021/07/26 20:32:15;;;;;;;2.35;2.20;;;21.70;99.90;;;;;;4850754;29;20410;-80
2021/07/26 20:34:43;;;;;;;3.37;2.63;;;21.70;99.90;;;;;;4823706;29;20581;-82
2021/07/26 20:37:09;;;;;;;2.25;2.05;;;21.60;99.90;;;;;;4823303;29;20404;-80
2021/07/26 20:39:35;;;;;;;3.58;2.50;;;21.60;99.90;;;;;;4839170;29;20408;-81
2021/07/26 20:42:01;;;;;;;2.50;2.30;;;21.60;99.90;;;;;;4817926;29;20459;-80
2021/07/26 20:44:27;;;;;;;2.58;2.38;;;21.50;99.90;;;;;;4822827;29;20567;-80
2021/07/26 20:46:53;;;;;;;2.50;2.30;;;21.40;99.90;;;;;;4841633;29;20412;-80
2021/07/26 20:49:21;;;;;;;2.43;2.27;;;21.50;99.90;;;;;;4844644;29;20491;-80
2021/07/26 20:51:49;;;;;;;2.45;2.25;;;21.50;99.90;;;;;;4830414;29;20430;-80
2021/07/26 20:54:15;;;;;;;2.70;2.50;;;21.50;99.90;;;;;;4843618;29;20422;-80
2021/07/26 20:56:41;;;;;;;2.80;2.50;;;21.50;99.90;;;;;;4860393;29;20417;-81
2021/07/26 20:59:06;;;;;;;3.53;2.58;;;21.40;99.90;;;;;;4825566;29;20414;-80
2021/07/26 21:01:32;;;;;;;2.65;2.45;;;21.40;99.90;;;;;;4823970;29;20402;-80
2021/07/26 21:03:58;;;;;;;2.57;2.37;;;21.30;99.90;;;;;;4825330;29;20442;-80
2021/07/26 21:06:24;;;;;;;2.65;2.40;;;21.40;99.90;;;;;;4828275;29;20898;-80
2021/07/26 21:08:49;;;;;;;2.30;2.17;;;21.20;99.90;;;;;;4856080;29;20701;-80
2021/07/26 21:11:15;;;;;;;2.67;2.47;;;21.30;99.90;;;;;;4855352;29;20498;-81
2021/07/26 21:13:41;;;;;;;2.28;2.10;;;21.30;99.90;;;;;;4824627;29;20894;-80
2021/07/26 21:16:11;;;;;;;3.40;2.60;;;21.30;99.90;;;;;;4825019;29;20523;-80
2021/07/26 21:18:37;;;;;;;5.13;2.72;;;21.20;99.90;;;;;;4847272;29;20423;-80
2021/07/26 21:21:05;;;;;;;1.95;1.85;;;21.10;99.90;;;;;;4839588;29;20422;-80
2021/07/26 21:23:31;;;;;;;2.53;2.33;;;21.10;99.90;;;;;;4839550;29;20438;-80
2021/07/26 21:25:57;;;;;;;2.43;2.23;;;21.10;99.90;;;;;;4807908;29;20502;-80
2021/07/26 21:28:23;;;;;;;2.13;1.90;;;21.10;99.90;;;;;;4839667;29;20432;-80
2021/07/26 21:30:49;;;;;;;3.00;2.72;;;21.10;99.90;;;;;;4827078;29;20418;-79
2021/07/26 21:33:14;;;;;;;3.27;2.73;;;21.10;99.90;;;;;;4831433;29;20423;-80
2021/07/26 21:35:40;;;;;;;3.20;2.75;;;21.00;99.90;;;;;;4812609;29;20772;-80
2021/07/26 21:38:06;;;;;;;2.58;2.35;;;21.00;99.90;;;;;;4833610;29;20431;-79
2021/07/26 21:40:31;;;;;;;3.03;2.73;;;21.00;99.90;;;;;;4838329;29;20468;-80
2021/07/26 21:42:57;;;;;;;2.65;2.45;;;21.00;99.90;;;;;;4854503;29;21031;-81
2021/07/26 21:45:22;;;;;;;4.40;3.07;;;21.00;99.90;;;;;;4838667;29;20418;-80
2021/07/26 21:47:50;;;;;;;2.50;2.30;;;21.00;99.90;;;;;;4823973;29;20786;-79
2021/07/26 21:50:17;;;;;;;2.67;2.47;;;21.00;99.90;;;;;;4823988;29;20417;-79
2021/07/26 21:52:43;;;;;;;2.67;2.47;;;21.00;99.90;;;;;;4847761;29;20424;-79
2021/07/26 21:55:09;;;;;;;2.33;2.13;;;21.10;99.90;;;;;;4835152;29;20416;-80
2021/07/26 21:57:35;;;;;;;2.40;2.20;;;20.90;99.90;;;;;;4823536;29;20407;-79
2021/07/26 22:00:02;;;;;;;2.40;2.20;;;21.00;99.90;;;;;;4822654;29;20409;-80
2021/07/26 22:02:27;;;;;;;2.22;2.10;;;21.00;99.90;;;;;;4836944;29;20438;-79
2021/07/26 22:04:53;;;;;;;2.67;2.20;;;21.10;99.90;;;;;;4839425;29;20502;-80
2021/07/26 22:07:28;;;;;;;3.00;2.30;;;21.10;99.90;;;;;;4824221;29;20434;-79
2021/07/26 22:09:53;;;;;;;2.42;2.22;;;21.10;99.90;;;;;;4839722;29;20442;-78
2021/07/26 22:12:19;;;;;;;2.40;2.13;;;21.10;99.90;;;;;;4818986;29;20415;-79
2021/07/26 22:14:45;;;;;;;2.08;1.98;;;21.00;99.90;;;;;;4807147;29;20445;-79
2021/07/26 22:17:11;;;;;;;1.93;1.83;;;21.00;99.90;;;;;;4835619;29;20438;-79
2021/07/26 22:19:36;;;;;;;2.47;2.30;;;20.90;99.90;;;;;;4834773;29;20423;-79
2021/07/26 22:22:02;;;;;;;2.20;2.00;;;21.00;99.90;;;;;;4835354;29;20406;-80
2021/07/26 22:24:28;;;;;;;2.20;1.90;;;21.00;99.90;;;;;;4834174;29;20425;-79
2021/07/26 22:26:54;;;;;;;2.05;1.85;;;21.00;99.90;;;;;;4841791;29;20417;-79
2021/07/26 22:29:20;;;;;;;2.20;2.00;;;21.10;99.90;;;;;;4809489;29;20418;-79
2021/07/26 22:31:46;;;;;;;2.13;1.93;;;21.10;99.90;;;;;;4836586;29;20850;-79
2021/07/26 22:34:11;;;;;;;1.90;1.70;;;21.10;99.90;;;;;;4821966;29;20417;-79
2021/07/26 22:36:37;;;;;;;2.10;1.90;;;21.00;99.90;;;;;;4836606;29;20425;-79
2021/07/26 22:39:03;;;;;;;2.47;2.00;;;21.10;99.90;;;;;;4852536;29;20922;-79
2021/07/26 22:41:28;;;;;;;2.42;2.20;;;21.10;99.90;;;;;;4835067;29;20415;-79
2021/07/26 22:43:57;;;;;;;1.97;1.87;;;21.10;99.90;;;;;;4835859;29;20937;-79
2021/07/26 22:46:22;;;;;;;1.87;1.73;;;21.10;99.90;;;;;;4806318;29;20420;-79
2021/07/26 22:48:48;;;;;;;2.10;2.00;;;21.00;99.90;;;;;;4819946;29;20398;-78
2021/07/26 22:51:14;;;;;;;2.10;2.00;;;21.00;99.90;;;;;;4833382;29;20434;-78
2021/07/26 22:53:39;;;;;;;1.80;1.70;;;21.00;99.90;;;;;;4816935;29;20418;-79
2021/07/26 22:56:05;;;;;;;2.15;1.95;;;21.00;99.90;;;;;;4837959;29;20481;-78
2021/07/26 22:58:31;;;;;;;2.17;1.97;;;21.00;99.90;;;;;;4824167;29;20425;-80
2021/07/26 23:00:57;;;;;;;1.67;1.57;;;21.00;99.90;;;;;;4821769;29;20431;-80
2021/07/26 23:03:23;;;;;;;2.07;1.90;;;20.90;99.90;;;;;;4823807;29;20941;-80
2021/07/26 23:05:52;;;;;;;1.70;1.60;;;20.90;99.90;;;;;;4807257;29;20402;-80
2021/07/26 23:08:17;;;;;;;1.80;1.70;;;21.00;99.90;;;;;;4822059;29;20410;-79
2021/07/26 23:10:43;;;;;;;2.10;1.90;;;21.00;99.90;;;;;;4852974;29;20415;-79
2021/07/26 23:13:08;;;;;;;2.20;1.98;;;21.00;99.90;;;;;;4834801;29;20504;-79
2021/07/26 23:15:34;;;;;;;1.67;1.57;;;21.00;99.90;;;;;;4833881;29;20760;-80
2021/07/26 23:18:00;;;;;;;2.58;2.20;;;21.00;99.90;;;;;;4821527;29;20418;-79
2021/07/26 23:20:25;;;;;;;2.00;1.90;;;21.00;99.90;;;;;;4836020;29;20424;-79
2021/07/26 23:22:51;;;;;;;2.00;1.90;;;20.80;99.90;;;;;;4818361;29;20507;-78
2021/07/26 23:25:17;;;;;;;2.08;1.98;;;20.80;99.90;;;;;;4822872;29;20611;-79
2021/07/26 23:27:42;;;;;;;1.97;1.87;;;20.70;99.90;;;;;;4836419;29;20783;-79
2021/07/26 23:30:09;;;;;;;2.60;1.90;;;20.70;99.90;;;;;;4845019;29;20414;-79
2021/07/26 23:32:34;;;;;;;2.07;1.90;;;20.70;99.90;;;;;;4822182;29;23180;-79
2021/07/26 23:35:00;;;;;;;2.08;1.98;;;20.70;99.90;;;;;;4839473;29;20409;-79
2021/07/26 23:37:26;;;;;;;2.13;1.93;;;20.80;99.90;;;;;;4823707;29;20414;-79
2021/07/26 23:39:52;;;;;;;3.85;2.25;;;20.70;99.90;;;;;;4840357;29;20444;-79
2021/07/26 23:42:17;;;;;;;2.33;2.17;;;20.70;99.90;;;;;;4836524;29;20491;-79
2021/07/26 23:44:43;;;;;;;2.20;2.00;;;20.50;99.90;;;;;;4807025;29;20418;-79
2021/07/26 23:47:09;;;;;;;3.00;2.28;;;20.40;99.90;;;;;;4829286;29;20416;-79
2021/07/26 23:49:37;;;;;;;2.33;2.10;;;20.30;99.90;;;;;;4854023;29;20402;-78
2021/07/26 23:52:02;;;;;;;2.00;1.90;;;20.30;99.90;;;;;;4824691;29;20516;-79
2021/07/26 23:54:28;;;;;;;2.40;2.20;;;20.30;99.90;;;;;;4824374;29;20406;-79
2021/07/26 23:56:54;;;;;;;2.03;1.83;;;20.30;99.90;;;;;;4821947;29;20858;-79
2021/07/26 23:59:19;;;;;;;2.15;1.95;;;20.30;99.90;;;;;;4837621;29;21050;-79
